Ya'An, China
Current Conditions -  °F | °C
As of 5:00 AM on Wednesday 22 Oct 2014 (Local Time) from ZUUU Reporting Station
Haze Haze  
Wind Chill: 66°   Ceiling: Unl
Heat Index: 66°   Visibility: 3mi
Dew Point: 57°   Wind: 0mph
Humidity: 73%   Direction: NA
Pressure: 30.15"   Gusts: NA
Location:  29.98°N, 103°E
Report Text: ZUUU 212100Z 00000MPS 5000 BR SCT050 19/14 Q1021 NOSIG
Loading
Personal Weather Stations






























Interactive Weather Map
Tropical Storm Tracking
New forecast layout! Learn more

10-Day Weather Forecast

Advertisements
Track Severe Weather on mobile